sensor_id;sensor_type;location;lat;lon;timestamp;temperature;humidity
12704;DHT22;6416;52.182;7.650;2024-02-28T00:00:48;4.30;92.30
12704;DHT22;6416;52.182;7.650;2024-02-28T00:03:13;4.30;92.40
12704;DHT22;6416;52.182;7.650;2024-02-28T00:05:38;4.30;92.40
12704;DHT22;6416;52.182;7.650;2024-02-28T00:08:04;4.30;92.50
12704;DHT22;6416;52.182;7.650;2024-02-28T00:10:29;4.30;92.60
12704;DHT22;6416;52.182;7.650;2024-02-28T00:12:55;4.30;92.70
12704;DHT22;6416;52.182;7.650;2024-02-28T00:15:20;4.20;92.70
12704;DHT22;6416;52.182;7.650;2024-02-28T00:17:46;4.40;92.80
12704;DHT22;6416;52.182;7.650;2024-02-28T00:20:11;4.40;92.90
12704;DHT22;6416;52.182;7.650;2024-02-28T00:22:36;4.40;93.00
12704;DHT22;6416;52.182;7.650;2024-02-28T00:25:02;4.50;93.20
12704;DHT22;6416;52.182;7.650;2024-02-28T00:27:28;4.50;93.20
12704;DHT22;6416;52.182;7.650;2024-02-28T00:29:53;4.50;93.30
12704;DHT22;6416;52.182;7.650;2024-02-28T00:32:18;4.50;93.40
12704;DHT22;6416;52.182;7.650;2024-02-28T00:34:44;4.60;93.50
12704;DHT22;6416;52.182;7.650;2024-02-28T00:37:09;4.60;93.60
12704;DHT22;6416;52.182;7.650;2024-02-28T00:39:35;4.70;93.70
12704;DHT22;6416;52.182;7.650;2024-02-28T00:42:00;4.70;93.70
12704;DHT22;6416;52.182;7.650;2024-02-28T00:44:26;4.70;93.80
12704;DHT22;6416;52.182;7.650;2024-02-28T00:46:51;4.70;93.80
12704;DHT22;6416;52.182;7.650;2024-02-28T00:49:16;4.70;93.90
12704;DHT22;6416;52.182;7.650;2024-02-28T00:51:42;4.70;93.90
12704;DHT22;6416;52.182;7.650;2024-02-28T00:54:07;4.70;93.90
12704;DHT22;6416;52.182;7.650;2024-02-28T00:56:32;4.80;94.00
12704;DHT22;6416;52.182;7.650;2024-02-28T00:58:58;4.80;94.00
12704;DHT22;6416;52.182;7.650;2024-02-28T01:01:23;4.80;94.00
12704;DHT22;6416;52.182;7.650;2024-02-28T01:03:49;4.80;94.00
12704;DHT22;6416;52.182;7.650;2024-02-28T01:06:14;4.80;93.90
12704;DHT22;6416;52.182;7.650;2024-02-28T01:08:39;4.80;93.90
12704;DHT22;6416;52.182;7.650;2024-02-28T01:11:05;4.70;93.90
12704;DHT22;6416;52.182;7.650;2024-02-28T01:13:30;4.70;93.90
12704;DHT22;6416;52.182;7.650;2024-02-28T01:15:56;4.70;93.80
12704;DHT22;6416;52.182;7.650;2024-02-28T01:18:21;4.70;93.80
12704;DHT22;6416;52.182;7.650;2024-02-28T01:20:46;4.70;93.80
12704;DHT22;6416;52.182;7.650;2024-02-28T01:23:12;4.70;93.80
12704;DHT22;6416;52.182;7.650;2024-02-28T01:25:37;4.60;93.80
12704;DHT22;6416;52.182;7.650;2024-02-28T01:28:03;4.60;93.80
12704;DHT22;6416;52.182;7.650;2024-02-28T01:30:29;4.60;93.80
12704;DHT22;6416;52.182;7.650;2024-02-28T01:32:54;4.60;93.80
12704;DHT22;6416;52.182;7.650;2024-02-28T01:35:19;4.60;93.80
12704;DHT22;6416;52.182;7.650;2024-02-28T01:37:45;4.50;93.60
12704;DHT22;6416;52.182;7.650;2024-02-28T01:40:10;4.50;93.50
12704;DHT22;6416;52.182;7.650;2024-02-28T01:42:36;4.50;93.50
12704;DHT22;6416;52.182;7.650;2024-02-28T01:45:01;4.50;93.60
12704;DHT22;6416;52.182;7.650;2024-02-28T01:47:27;4.40;93.60
12704;DHT22;6416;52.182;7.650;2024-02-28T01:49:52;4.40;93.60
12704;DHT22;6416;52.182;7.650;2024-02-28T01:52:18;4.40;93.70
12704;DHT22;6416;52.182;7.650;2024-02-28T01:54:43;4.40;93.80
12704;DHT22;6416;52.182;7.650;2024-02-28T01:57:09;4.40;93.80
12704;DHT22;6416;52.182;7.650;2024-02-28T01:59:34;4.40;93.80
12704;DHT22;6416;52.182;7.650;2024-02-28T02:02:00;4.40;93.90
12704;DHT22;6416;52.182;7.650;2024-02-28T02:04:25;4.40;93.90
12704;DHT22;6416;52.182;7.650;2024-02-28T02:06:51;4.40;93.90
12704;DHT22;6416;52.182;7.650;2024-02-28T02:09:16;4.40;94.00
12704;DHT22;6416;52.182;7.650;2024-02-28T02:11:42;4.40;94.10
12704;DHT22;6416;52.182;7.650;2024-02-28T02:14:07;4.40;94.10
12704;DHT22;6416;52.182;7.650;2024-02-28T02:16:32;4.40;94.10
12704;DHT22;6416;52.182;7.650;2024-02-28T02:18:58;4.40;94.10
12704;DHT22;6416;52.182;7.650;2024-02-28T02:21:24;4.40;94.10
12704;DHT22;6416;52.182;7.650;2024-02-28T02:23:51;4.40;94.20
12704;DHT22;6416;52.182;7.650;2024-02-28T02:26:17;4.40;94.20
12704;DHT22;6416;52.182;7.650;2024-02-28T02:28:42;4.40;94.20
12704;DHT22;6416;52.182;7.650;2024-02-28T02:31:08;4.40;94.10
12704;DHT22;6416;52.182;7.650;2024-02-28T02:33:33;4.40;94.10
12704;DHT22;6416;52.182;7.650;2024-02-28T02:35:59;4.40;94.10
12704;DHT22;6416;52.182;7.650;2024-02-28T02:38:24;4.40;94.10
12704;DHT22;6416;52.182;7.650;2024-02-28T02:40:53;4.40;94.10
12704;DHT22;6416;52.182;7.650;2024-02-28T02:43:18;4.40;94.10
12704;DHT22;6416;52.182;7.650;2024-02-28T02:45:44;4.40;94.10
12704;DHT22;6416;52.182;7.650;2024-02-28T02:48:09;4.40;94.20
12704;DHT22;6416;52.182;7.650;2024-02-28T02:50:35;4.40;94.20
12704;DHT22;6416;52.182;7.650;2024-02-28T02:53:00;4.40;94.30
12704;DHT22;6416;52.182;7.650;2024-02-28T02:55:26;4.40;94.30
12704;DHT22;6416;52.182;7.650;2024-02-28T02:57:51;4.40;94.30
12704;DHT22;6416;52.182;7.650;2024-02-28T03:00:17;4.40;94.20
12704;DHT22;6416;52.182;7.650;2024-02-28T03:02:45;4.40;94.10
12704;DHT22;6416;52.182;7.650;2024-02-28T03:05:11;4.30;94.10
12704;DHT22;6416;52.182;7.650;2024-02-28T03:07:36;4.30;94.00
12704;DHT22;6416;52.182;7.650;2024-02-28T03:10:02;4.30;94.10
12704;DHT22;6416;52.182;7.650;2024-02-28T03:12:27;4.30;94.10
12704;DHT22;6416;52.182;7.650;2024-02-28T03:14:52;4.30;94.00
12704;DHT22;6416;52.182;7.650;2024-02-28T03:17:18;4.30;93.90
12704;DHT22;6416;52.182;7.650;2024-02-28T03:19:43;4.20;93.70
12704;DHT22;6416;52.182;7.650;2024-02-28T03:22:09;4.20;93.80
12704;DHT22;6416;52.182;7.650;2024-02-28T03:24:34;4.20;93.80
12704;DHT22;6416;52.182;7.650;2024-02-28T03:27:00;4.20;93.90
12704;DHT22;6416;52.182;7.650;2024-02-28T03:29:25;4.10;93.90
12704;DHT22;6416;52.182;7.650;2024-02-28T03:31:50;4.10;94.00
12704;DHT22;6416;52.182;7.650;2024-02-28T03:34:16;4.10;94.00
12704;DHT22;6416;52.182;7.650;2024-02-28T03:36:41;4.10;94.10
12704;DHT22;6416;52.182;7.650;2024-02-28T03:39:07;4.10;94.20
12704;DHT22;6416;52.182;7.650;2024-02-28T03:41:32;4.20;94.30
12704;DHT22;6416;52.182;7.650;2024-02-28T03:43:57;4.10;94.30
12704;DHT22;6416;52.182;7.650;2024-02-28T03:46:23;4.20;94.50
12704;DHT22;6416;52.182;7.650;2024-02-28T03:48:48;4.20;94.50
12704;DHT22;6416;52.182;7.650;2024-02-28T03:51:14;4.20;94.60
12704;DHT22;6416;52.182;7.650;2024-02-28T03:53:40;4.20;94.60
12704;DHT22;6416;52.182;7.650;2024-02-28T03:56:05;4.20;94.60
12704;DHT22;6416;52.182;7.650;2024-02-28T03:58:31;4.20;94.70
12704;DHT22;6416;52.182;7.650;2024-02-28T04:00:56;4.20;94.70
12704;DHT22;6416;52.182;7.650;2024-02-28T04:03:22;4.30;94.70
12704;DHT22;6416;52.182;7.650;2024-02-28T04:05:47;4.20;94.60
12704;DHT22;6416;52.182;7.650;2024-02-28T04:08:12;4.30;94.60
12704;DHT22;6416;52.182;7.650;2024-02-28T04:10:38;4.20;94.50
12704;DHT22;6416;52.182;7.650;2024-02-28T04:13:03;4.20;94.50
12704;DHT22;6416;52.182;7.650;2024-02-28T04:15:29;4.20;94.50
12704;DHT22;6416;52.182;7.650;2024-02-28T04:17:55;4.20;94.50
12704;DHT22;6416;52.182;7.650;2024-02-28T04:20:20;4.20;94.50
12704;DHT22;6416;52.182;7.650;2024-02-28T04:22:46;4.20;94.50
12704;DHT22;6416;52.182;7.650;2024-02-28T04:25:11;4.20;94.50
12704;DHT22;6416;52.182;7.650;2024-02-28T04:27:37;4.20;94.50
12704;DHT22;6416;52.182;7.650;2024-02-28T04:30:03;4.20;94.60
12704;DHT22;6416;52.182;7.650;2024-02-28T04:32:28;4.20;94.70
12704;DHT22;6416;52.182;7.650;2024-02-28T04:34:54;4.20;94.70
12704;DHT22;6416;52.182;7.650;2024-02-28T04:37:19;4.20;94.70
12704;DHT22;6416;52.182;7.650;2024-02-28T04:39:44;4.20;94.60
12704;DHT22;6416;52.182;7.650;2024-02-28T04:42:10;4.20;94.50
12704;DHT22;6416;52.182;7.650;2024-02-28T04:44:35;4.20;94.40
12704;DHT22;6416;52.182;7.650;2024-02-28T04:47:01;4.20;94.40
12704;DHT22;6416;52.182;7.650;2024-02-28T04:49:26;4.10;94.30
12704;DHT22;6416;52.182;7.650;2024-02-28T04:51:52;4.10;94.20
12704;DHT22;6416;52.182;7.650;2024-02-28T04:54:17;4.10;94.10
12704;DHT22;6416;52.182;7.650;2024-02-28T04:56:43;4.00;94.10
12704;DHT22;6416;52.182;7.650;2024-02-28T04:59:08;4.00;94.20
12704;DHT22;6416;52.182;7.650;2024-02-28T05:01:34;4.00;94.10
12704;DHT22;6416;52.182;7.650;2024-02-28T05:03:59;3.90;94.10
12704;DHT22;6416;52.182;7.650;2024-02-28T05:06:24;3.90;94.10
12704;DHT22;6416;52.182;7.650;2024-02-28T05:08:50;3.90;94.10
12704;DHT22;6416;52.182;7.650;2024-02-28T05:11:15;3.90;94.20
12704;DHT22;6416;52.182;7.650;2024-02-28T05:13:41;3.90;94.20
12704;DHT22;6416;52.182;7.650;2024-02-28T05:16:11;3.90;94.30
12704;DHT22;6416;52.182;7.650;2024-02-28T05:18:37;3.90;94.30
12704;DHT22;6416;52.182;7.650;2024-02-28T05:21:02;3.90;94.40
12704;DHT22;6416;52.182;7.650;2024-02-28T05:23:28;3.90;94.50
12704;DHT22;6416;52.182;7.650;2024-02-28T05:25:53;3.90;94.60
12704;DHT22;6416;52.182;7.650;2024-02-28T05:28:19;3.90;94.70
12704;DHT22;6416;52.182;7.650;2024-02-28T05:30:44;3.90;95.20
12704;DHT22;6416;52.182;7.650;2024-02-28T05:33:09;3.90;94.90
12704;DHT22;6416;52.182;7.650;2024-02-28T05:35:35;3.90;94.90
12704;DHT22;6416;52.182;7.650;2024-02-28T05:38:00;3.90;94.90
12704;DHT22;6416;52.182;7.650;2024-02-28T05:40:26;3.90;95.10
12704;DHT22;6416;52.182;7.650;2024-02-28T05:42:51;4.00;95.10
12704;DHT22;6416;52.182;7.650;2024-02-28T05:45:16;4.00;95.10
12704;DHT22;6416;52.182;7.650;2024-02-28T05:47:42;4.10;95.20
12704;DHT22;6416;52.182;7.650;2024-02-28T05:50:07;4.00;95.30
12704;DHT22;6416;52.182;7.650;2024-02-28T05:52:33;4.00;95.30
12704;DHT22;6416;52.182;7.650;2024-02-28T05:54:58;4.10;95.40
12704;DHT22;6416;52.182;7.650;2024-02-28T05:57:24;4.10;95.40
12704;DHT22;6416;52.182;7.650;2024-02-28T05:59:49;4.10;95.50
12704;DHT22;6416;52.182;7.650;2024-02-28T06:02:14;4.10;95.50
12704;DHT22;6416;52.182;7.650;2024-02-28T06:04:40;4.20;95.70
12704;DHT22;6416;52.182;7.650;2024-02-28T06:07:06;4.20;95.70
12704;DHT22;6416;52.182;7.650;2024-02-28T06:09:31;4.20;95.70
12704;DHT22;6416;52.182;7.650;2024-02-28T06:11:57;4.20;95.70
12704;DHT22;6416;52.182;7.650;2024-02-28T06:14:22;4.20;95.70
12704;DHT22;6416;52.182;7.650;2024-02-28T06:16:47;4.20;95.70
12704;DHT22;6416;52.182;7.650;2024-02-28T06:19:13;4.20;95.60
12704;DHT22;6416;52.182;7.650;2024-02-28T06:21:38;4.20;95.60
12704;DHT22;6416;52.182;7.650;2024-02-28T06:24:04;4.20;95.60
12704;DHT22;6416;52.182;7.650;2024-02-28T06:26:29;4.20;95.70
12704;DHT22;6416;52.182;7.650;2024-02-28T06:28:55;4.20;95.80
12704;DHT22;6416;52.182;7.650;2024-02-28T06:31:20;4.20;95.80
12704;DHT22;6416;52.182;7.650;2024-02-28T06:33:46;4.20;95.90
12704;DHT22;6416;52.182;7.650;2024-02-28T06:36:11;4.20;95.90
12704;DHT22;6416;52.182;7.650;2024-02-28T06:38:36;4.20;96.00
12704;DHT22;6416;52.182;7.650;2024-02-28T06:41:03;4.30;96.10
12704;DHT22;6416;52.182;7.650;2024-02-28T06:43:28;4.30;96.10
12704;DHT22;6416;52.182;7.650;2024-02-28T06:45:54;4.30;96.10
12704;DHT22;6416;52.182;7.650;2024-02-28T06:48:19;4.30;96.30
12704;DHT22;6416;52.182;7.650;2024-02-28T06:50:44;4.30;96.30
12704;DHT22;6416;52.182;7.650;2024-02-28T06:53:10;4.30;96.30
12704;DHT22;6416;52.182;7.650;2024-02-28T06:55:35;4.30;96.30
12704;DHT22;6416;52.182;7.650;2024-02-28T06:58:01;4.30;96.50
12704;DHT22;6416;52.182;7.650;2024-02-28T07:00:26;4.30;96.40
12704;DHT22;6416;52.182;7.650;2024-02-28T07:02:51;4.40;96.50
12704;DHT22;6416;52.182;7.650;2024-02-28T07:05:17;4.40;96.60
12704;DHT22;6416;52.182;7.650;2024-02-28T07:07:42;4.40;96.60
12704;DHT22;6416;52.182;7.650;2024-02-28T07:10:08;4.40;96.60
12704;DHT22;6416;52.182;7.650;2024-02-28T07:12:33;4.40;96.70
12704;DHT22;6416;52.182;7.650;2024-02-28T07:14:58;4.40;96.90
12704;DHT22;6416;52.182;7.650;2024-02-28T07:17:24;4.50;97.00
12704;DHT22;6416;52.182;7.650;2024-02-28T07:19:49;4.50;97.00
12704;DHT22;6416;52.182;7.650;2024-02-28T07:22:15;4.50;97.20
12704;DHT22;6416;52.182;7.650;2024-02-28T07:24:40;4.50;97.20
12704;DHT22;6416;52.182;7.650;2024-02-28T07:27:05;4.50;97.20
12704;DHT22;6416;52.182;7.650;2024-02-28T07:29:31;4.50;97.20
12704;DHT22;6416;52.182;7.650;2024-02-28T07:31:56;4.50;97.30
12704;DHT22;6416;52.182;7.650;2024-02-28T07:34:22;4.50;97.50
12704;DHT22;6416;52.182;7.650;2024-02-28T07:36:47;4.50;97.40
12704;DHT22;6416;52.182;7.650;2024-02-28T07:39:12;4.50;97.40
12704;DHT22;6416;52.182;7.650;2024-02-28T07:41:38;4.60;97.50
12704;DHT22;6416;52.182;7.650;2024-02-28T07:44:04;4.60;97.60
12704;DHT22;6416;52.182;7.650;2024-02-28T07:46:29;4.70;97.90
12704;DHT22;6416;52.182;7.650;2024-02-28T07:48:55;4.70;97.90
12704;DHT22;6416;52.182;7.650;2024-02-28T07:51:20;4.70;98.00
12704;DHT22;6416;52.182;7.650;2024-02-28T07:53:45;4.70;98.00
12704;DHT22;6416;52.182;7.650;2024-02-28T07:56:17;4.80;98.00
12704;DHT22;6416;52.182;7.650;2024-02-28T07:58:43;4.80;98.00
12704;DHT22;6416;52.182;7.650;2024-02-28T08:01:08;4.80;98.10
12704;DHT22;6416;52.182;7.650;2024-02-28T08:03:34;4.90;98.20
12704;DHT22;6416;52.182;7.650;2024-02-28T08:05:59;4.90;98.30
12704;DHT22;6416;52.182;7.650;2024-02-28T08:08:25;5.00;98.30
12704;DHT22;6416;52.182;7.650;2024-02-28T08:10:50;5.00;98.30
12704;DHT22;6416;52.182;7.650;2024-02-28T08:13:15;5.00;98.40
12704;DHT22;6416;52.182;7.650;2024-02-28T08:15:41;5.10;98.50
12704;DHT22;6416;52.182;7.650;2024-02-28T08:18:06;5.10;98.50
12704;DHT22;6416;52.182;7.650;2024-02-28T08:20:31;5.10;98.40
12704;DHT22;6416;52.182;7.650;2024-02-28T08:22:57;5.20;98.50
12704;DHT22;6416;52.182;7.650;2024-02-28T08:25:22;5.20;98.50
12704;DHT22;6416;52.182;7.650;2024-02-28T08:27:48;5.20;98.50
12704;DHT22;6416;52.182;7.650;2024-02-28T08:30:13;5.30;98.80
12704;DHT22;6416;52.182;7.650;2024-02-28T08:32:40;5.30;98.90
12704;DHT22;6416;52.182;7.650;2024-02-28T08:35:07;5.40;98.90
12704;DHT22;6416;52.182;7.650;2024-02-28T08:37:33;5.40;99.20
12704;DHT22;6416;52.182;7.650;2024-02-28T08:39:58;5.50;99.30
12704;DHT22;6416;52.182;7.650;2024-02-28T08:42:24;5.60;99.40
12704;DHT22;6416;52.182;7.650;2024-02-28T08:44:50;5.60;99.40
12704;DHT22;6416;52.182;7.650;2024-02-28T08:47:15;5.70;99.50
12704;DHT22;6416;52.182;7.650;2024-02-28T08:49:40;5.70;99.50
12704;DHT22;6416;52.182;7.650;2024-02-28T08:52:06;5.80;99.60
12704;DHT22;6416;52.182;7.650;2024-02-28T08:54:31;5.80;99.80
12704;DHT22;6416;52.182;7.650;2024-02-28T08:56:57;5.90;99.90
12704;DHT22;6416;52.182;7.650;2024-02-28T08:59:22;6.00;99.90
12704;DHT22;6416;52.182;7.650;2024-02-28T09:01:48;6.00;99.90
12704;DHT22;6416;52.182;7.650;2024-02-28T09:04:13;6.10;99.90
12704;DHT22;6416;52.182;7.650;2024-02-28T09:06:39;6.10;99.90
12704;DHT22;6416;52.182;7.650;2024-02-28T09:09:04;6.20;99.90
12704;DHT22;6416;52.182;7.650;2024-02-28T09:11:30;6.20;99.90
12704;DHT22;6416;52.182;7.650;2024-02-28T09:13:55;6.30;99.90
12704;DHT22;6416;52.182;7.650;2024-02-28T09:16:20;6.30;99.90
12704;DHT22;6416;52.182;7.650;2024-02-28T09:18:46;6.40;99.90
12704;DHT22;6416;52.182;7.650;2024-02-28T09:21:11;6.40;99.90
12704;DHT22;6416;52.182;7.650;2024-02-28T09:23:36;6.50;99.90
12704;DHT22;6416;52.182;7.650;2024-02-28T09:26:05;6.50;99.90
12704;DHT22;6416;52.182;7.650;2024-02-28T09:28:31;6.60;99.90
12704;DHT22;6416;52.182;7.650;2024-02-28T09:30:56;6.70;99.90
12704;DHT22;6416;52.182;7.650;2024-02-28T09:33:21;6.70;99.90
12704;DHT22;6416;52.182;7.650;2024-02-28T09:35:47;6.80;99.90
12704;DHT22;6416;52.182;7.650;2024-02-28T09:38:12;6.80;99.90
12704;DHT22;6416;52.182;7.650;2024-02-28T09:40:38;6.90;99.90
12704;DHT22;6416;52.182;7.650;2024-02-28T09:43:03;7.00;99.90
12704;DHT22;6416;52.182;7.650;2024-02-28T09:45:32;7.10;99.90
12704;DHT22;6416;52.182;7.650;2024-02-28T09:47:58;7.20;99.90
12704;DHT22;6416;52.182;7.650;2024-02-28T09:50:25;7.40;99.90
12704;DHT22;6416;52.182;7.650;2024-02-28T09:52:50;7.60;99.90
12704;DHT22;6416;52.182;7.650;2024-02-28T09:55:16;7.70;99.90
12704;DHT22;6416;52.182;7.650;2024-02-28T09:57:41;7.80;99.90
12704;DHT22;6416;52.182;7.650;2024-02-28T10:00:08;8.00;99.90
12704;DHT22;6416;52.182;7.650;2024-02-28T10:02:34;8.20;99.90
12704;DHT22;6416;52.182;7.650;2024-02-28T10:05:00;8.40;99.90
12704;DHT22;6416;52.182;7.650;2024-02-28T10:07:27;8.60;99.90
12704;DHT22;6416;52.182;7.650;2024-02-28T10:09:52;8.80;99.90
12704;DHT22;6416;52.182;7.650;2024-02-28T10:12:17;9.10;99.90
12704;DHT22;6416;52.182;7.650;2024-02-28T10:14:43;9.30;99.90
12704;DHT22;6416;52.182;7.650;2024-02-28T10:17:08;9.50;99.90
12704;DHT22;6416;52.182;7.650;2024-02-28T10:19:34;9.70;99.90
12704;DHT22;6416;52.182;7.650;2024-02-28T10:21:59;9.90;99.90
12704;DHT22;6416;52.182;7.650;2024-02-28T10:24:25;10.00;99.90
12704;DHT22;6416;52.182;7.650;2024-02-28T10:26:50;10.20;99.90
12704;DHT22;6416;52.182;7.650;2024-02-28T10:29:15;10.30;99.90
12704;DHT22;6416;52.182;7.650;2024-02-28T10:31:41;10.50;99.90
12704;DHT22;6416;52.182;7.650;2024-02-28T10:34:06;10.70;99.90
12704;DHT22;6416;52.182;7.650;2024-02-28T10:36:32;10.80;99.90
12704;DHT22;6416;52.182;7.650;2024-02-28T10:38:57;10.90;99.90
12704;DHT22;6416;52.182;7.650;2024-02-28T10:41:24;11.00;99.90
12704;DHT22;6416;52.182;7.650;2024-02-28T10:43:50;11.20;99.90
12704;DHT22;6416;52.182;7.650;2024-02-28T10:46:16;11.20;99.90
12704;DHT22;6416;52.182;7.650;2024-02-28T10:48:44;11.30;99.90
12704;DHT22;6416;52.182;7.650;2024-02-28T10:51:09;11.40;99.90
12704;DHT22;6416;52.182;7.650;2024-02-28T10:53:40;11.50;99.90
12704;DHT22;6416;52.182;7.650;2024-02-28T10:56:06;11.50;99.90
12704;DHT22;6416;52.182;7.650;2024-02-28T10:58:35;11.60;99.90
12704;DHT22;6416;52.182;7.650;2024-02-28T11:01:00;11.60;99.90
12704;DHT22;6416;52.182;7.650;2024-02-28T11:03:26;11.60;99.90
12704;DHT22;6416;52.182;7.650;2024-02-28T11:05:52;11.60;99.90
12704;DHT22;6416;52.182;7.650;2024-02-28T11:08:21;11.60;99.90
12704;DHT22;6416;52.182;7.650;2024-02-28T11:10:46;11.60;99.90
12704;DHT22;6416;52.182;7.650;2024-02-28T11:13:22;11.70;99.90
12704;DHT22;6416;52.182;7.650;2024-02-28T11:15:48;11.70;99.90
12704;DHT22;6416;52.182;7.650;2024-02-28T11:18:13;11.70;99.90
12704;DHT22;6416;52.182;7.650;2024-02-28T11:20:38;11.70;99.90
12704;DHT22;6416;52.182;7.650;2024-02-28T11:23:07;11.60;99.90
12704;DHT22;6416;52.182;7.650;2024-02-28T11:25:33;11.60;99.90
12704;DHT22;6416;52.182;7.650;2024-02-28T11:27:58;11.60;99.90
12704;DHT22;6416;52.182;7.650;2024-02-28T11:30:24;11.60;99.90
12704;DHT22;6416;52.182;7.650;2024-02-28T11:32:51;11.60;99.90
12704;DHT22;6416;52.182;7.650;2024-02-28T11:35:16;11.60;99.90
12704;DHT22;6416;52.182;7.650;2024-02-28T11:37:44;11.60;99.90
12704;DHT22;6416;52.182;7.650;2024-02-28T11:40:10;11.60;99.90
12704;DHT22;6416;52.182;7.650;2024-02-28T11:42:35;11.60;99.90
12704;DHT22;6416;52.182;7.650;2024-02-28T11:45:01;11.60;99.90
12704;DHT22;6416;52.182;7.650;2024-02-28T11:47:27;11.60;99.90
12704;DHT22;6416;52.182;7.650;2024-02-28T11:49:52;11.60;99.90
12704;DHT22;6416;52.182;7.650;2024-02-28T11:52:18;11.60;99.90
12704;DHT22;6416;52.182;7.650;2024-02-28T11:54:44;11.60;99.90
12704;DHT22;6416;52.182;7.650;2024-02-28T11:57:10;11.60;99.90
12704;DHT22;6416;52.182;7.650;2024-02-28T11:59:36;11.60;99.90
12704;DHT22;6416;52.182;7.650;2024-02-28T12:02:10;11.70;99.90
12704;DHT22;6416;52.182;7.650;2024-02-28T12:04:36;11.60;99.90
12704;DHT22;6416;52.182;7.650;2024-02-28T12:07:01;11.60;99.90
12704;DHT22;6416;52.182;7.650;2024-02-28T12:09:27;11.60;99.90
12704;DHT22;6416;52.182;7.650;2024-02-28T12:11:52;11.60;99.90
12704;DHT22;6416;52.182;7.650;2024-02-28T12:14:18;11.60;99.90
12704;DHT22;6416;52.182;7.650;2024-02-28T12:16:43;11.60;99.90
12704;DHT22;6416;52.182;7.650;2024-02-28T12:19:09;11.60;99.90
12704;DHT22;6416;52.182;7.650;2024-02-28T12:21:34;11.60;99.90
12704;DHT22;6416;52.182;7.650;2024-02-28T12:24:00;11.60;99.90
12704;DHT22;6416;52.182;7.650;2024-02-28T12:26:26;11.60;99.90
12704;DHT22;6416;52.182;7.650;2024-02-28T12:28:52;11.60;99.90
12704;DHT22;6416;52.182;7.650;2024-02-28T12:31:17;11.60;99.90
12704;DHT22;6416;52.182;7.650;2024-02-28T12:33:43;11.70;99.90
12704;DHT22;6416;52.182;7.650;2024-02-28T12:36:08;11.70;99.90
12704;DHT22;6416;52.182;7.650;2024-02-28T12:38:34;11.80;99.90
12704;DHT22;6416;52.182;7.650;2024-02-28T12:40:59;11.80;99.90
12704;DHT22;6416;52.182;7.650;2024-02-28T12:43:25;11.80;99.90
12704;DHT22;6416;52.182;7.650;2024-02-28T12:45:50;11.80;99.90
12704;DHT22;6416;52.182;7.650;2024-02-28T12:48:15;11.80;99.90
12704;DHT22;6416;52.182;7.650;2024-02-28T12:50:41;11.70;99.90
12704;DHT22;6416;52.182;7.650;2024-02-28T12:53:06;11.70;99.90
12704;DHT22;6416;52.182;7.650;2024-02-28T12:55:32;11.70;99.90
12704;DHT22;6416;52.182;7.650;2024-02-28T12:57:57;11.70;99.90
12704;DHT22;6416;52.182;7.650;2024-02-28T13:00:22;11.70;99.90
12704;DHT22;6416;52.182;7.650;2024-02-28T13:02:48;11.60;99.90
12704;DHT22;6416;52.182;7.650;2024-02-28T13:05:13;11.70;99.90
12704;DHT22;6416;52.182;7.650;2024-02-28T13:07:39;11.70;99.90
12704;DHT22;6416;52.182;7.650;2024-02-28T13:10:05;11.70;99.90
12704;DHT22;6416;52.182;7.650;2024-02-28T13:12:31;11.70;99.90
12704;DHT22;6416;52.182;7.650;2024-02-28T13:14:56;11.70;99.90
12704;DHT22;6416;52.182;7.650;2024-02-28T13:17:21;11.70;99.90
12704;DHT22;6416;52.182;7.650;2024-02-28T13:19:47;11.70;99.90
12704;DHT22;6416;52.182;7.650;2024-02-28T13:22:12;11.70;99.90
12704;DHT22;6416;52.182;7.650;2024-02-28T13:24:38;11.70;99.90
12704;DHT22;6416;52.182;7.650;2024-02-28T13:27:03;11.70;99.90
12704;DHT22;6416;52.182;7.650;2024-02-28T13:29:29;11.70;99.90
12704;DHT22;6416;52.182;7.650;2024-02-28T13:31:54;11.80;99.90
12704;DHT22;6416;52.182;7.650;2024-02-28T13:34:19;11.80;99.90
12704;DHT22;6416;52.182;7.650;2024-02-28T13:36:45;11.80;99.90
12704;DHT22;6416;52.182;7.650;2024-02-28T13:39:10;11.80;99.90
12704;DHT22;6416;52.182;7.650;2024-02-28T13:41:36;11.80;99.90
12704;DHT22;6416;52.182;7.650;2024-02-28T13:44:01;11.90;99.90
12704;DHT22;6416;52.182;7.650;2024-02-28T13:46:26;11.90;99.90
12704;DHT22;6416;52.182;7.650;2024-02-28T13:48:52;11.90;99.90
12704;DHT22;6416;52.182;7.650;2024-02-28T13:51:17;11.90;99.90
12704;DHT22;6416;52.182;7.650;2024-02-28T13:53:43;11.90;99.90
12704;DHT22;6416;52.182;7.650;2024-02-28T13:56:08;12.00;99.90
12704;DHT22;6416;52.182;7.650;2024-02-28T13:58:33;12.00;99.90
12704;DHT22;6416;52.182;7.650;2024-02-28T14:00:59;12.00;99.90
12704;DHT22;6416;52.182;7.650;2024-02-28T14:03:24;12.00;99.90
12704;DHT22;6416;52.182;7.650;2024-02-28T14:05:50;12.00;99.90
12704;DHT22;6416;52.182;7.650;2024-02-28T14:08:15;12.00;99.90
12704;DHT22;6416;52.182;7.650;2024-02-28T14:10:40;12.00;99.90
12704;DHT22;6416;52.182;7.650;2024-02-28T14:13:06;12.00;99.90
12704;DHT22;6416;52.182;7.650;2024-02-28T14:15:31;12.00;99.90
12704;DHT22;6416;52.182;7.650;2024-02-28T14:17:57;12.00;99.90
12704;DHT22;6416;52.182;7.650;2024-02-28T14:20:22;12.00;99.90
12704;DHT22;6416;52.182;7.650;2024-02-28T14:22:47;12.00;99.90
12704;DHT22;6416;52.182;7.650;2024-02-28T14:25:16;12.00;99.90
12704;DHT22;6416;52.182;7.650;2024-02-28T14:27:43;12.00;99.90
12704;DHT22;6416;52.182;7.650;2024-02-28T14:30:09;12.10;99.90
12704;DHT22;6416;52.182;7.650;2024-02-28T14:32:35;12.10;99.90
12704;DHT22;6416;52.182;7.650;2024-02-28T14:35:00;12.10;99.90
12704;DHT22;6416;52.182;7.650;2024-02-28T14:37:25;12.20;99.90
12704;DHT22;6416;52.182;7.650;2024-02-28T14:39:51;12.20;99.90
12704;DHT22;6416;52.182;7.650;2024-02-28T14:42:16;12.20;99.90
12704;DHT22;6416;52.182;7.650;2024-02-28T14:44:42;12.30;99.90
12704;DHT22;6416;52.182;7.650;2024-02-28T14:47:07;12.30;99.90
12704;DHT22;6416;52.182;7.650;2024-02-28T14:49:33;12.30;99.90
12704;DHT22;6416;52.182;7.650;2024-02-28T14:51:58;12.30;99.90
12704;DHT22;6416;52.182;7.650;2024-02-28T14:54:23;12.30;99.90
12704;DHT22;6416;52.182;7.650;2024-02-28T14:56:49;12.30;99.90
12704;DHT22;6416;52.182;7.650;2024-02-28T14:59:14;12.30;99.90
12704;DHT22;6416;52.182;7.650;2024-02-28T15:01:40;12.30;99.90
12704;DHT22;6416;52.182;7.650;2024-02-28T15:04:05;12.20;99.90
12704;DHT22;6416;52.182;7.650;2024-02-28T15:06:30;12.20;99.90
12704;DHT22;6416;52.182;7.650;2024-02-28T15:08:56;12.30;99.90
12704;DHT22;6416;52.182;7.650;2024-02-28T15:11:21;12.20;99.90
12704;DHT22;6416;52.182;7.650;2024-02-28T15:13:47;12.30;99.90
12704;DHT22;6416;52.182;7.650;2024-02-28T15:16:12;12.30;99.90
12704;DHT22;6416;52.182;7.650;2024-02-28T15:18:37;12.30;99.90
12704;DHT22;6416;52.182;7.650;2024-02-28T15:21:03;12.30;99.90
12704;DHT22;6416;52.182;7.650;2024-02-28T15:23:29;12.30;99.90
12704;DHT22;6416;52.182;7.650;2024-02-28T15:25:54;12.30;99.90
12704;DHT22;6416;52.182;7.650;2024-02-28T15:28:20;12.30;99.90
12704;DHT22;6416;52.182;7.650;2024-02-28T15:30:45;12.30;99.90
12704;DHT22;6416;52.182;7.650;2024-02-28T15:33:11;12.30;99.90
12704;DHT22;6416;52.182;7.650;2024-02-28T15:35:36;12.30;99.90
12704;DHT22;6416;52.182;7.650;2024-02-28T15:38:02;12.30;99.90
12704;DHT22;6416;52.182;7.650;2024-02-28T15:40:27;12.30;99.90
12704;DHT22;6416;52.182;7.650;2024-02-28T15:42:52;12.20;99.90
12704;DHT22;6416;52.182;7.650;2024-02-28T15:45:18;12.20;99.90